Time;durP1;ratioP1;P1;durP2;ratioP2;P2;SDS_P1;SDS_P2;PMS_P1;PMS_P2;Temp;Humidity;BMP_temperature;BMP_pressure;BME280_temperature;BME280_humidity;BME280_pressure;Samples;Min_cycle;Max_cycle;Signal;HPM_P1;HPM_P2
2021/06/09 00:00:12;;;;;;;0.73;0.70;;;14.30;99.90;;;14.96;100.00;-15083.72;5070433;28;20449;-78
2021/06/09 00:02:40;;;;;;;0.73;0.70;;;14.30;99.90;;;14.89;100.00;-15959.06;5056531;28;20432;-77
2021/06/09 00:05:09;;;;;;;0.80;0.70;;;14.20;99.90;;;14.82;100.00;-16859.16;5054658;28;20447;-78
2021/06/09 00:07:38;;;;;;;0.80;0.70;;;14.20;99.90;;;14.78;100.00;-17691.31;5054077;28;20443;-77
2021/06/09 00:10:07;;;;;;;0.70;0.70;;;14.20;99.90;;;14.71;100.00;-18598.13;5070274;28;20482;-77
2021/06/09 00:12:35;;;;;;;0.70;0.70;;;14.10;99.90;;;14.70;100.00;-19389.94;5074221;28;20767;-78
2021/06/09 00:15:05;;;;;;;0.77;0.67;;;14.10;99.90;;;14.71;100.00;-20061.03;5073896;28;20445;-77
2021/06/09 00:17:32;;;;;;;0.70;0.60;;;14.00;99.90;;;14.64;100.00;-20639.09;5072152;28;20993;-77
2021/06/09 00:20:00;;;;;;;0.77;0.67;;;14.00;99.90;;;14.62;100.00;-21079.06;5057169;28;20464;-77
2021/06/09 00:22:29;;;;;;;0.70;0.60;;;14.00;99.90;;;14.59;100.00;-21078.22;5057418;28;20442;-77
2021/06/09 00:24:58;;;;;;;0.80;0.70;;;14.00;99.90;;;14.56;100.00;-21077.41;5073477;28;20505;-78
2021/06/09 00:27:27;;;;;;;0.70;0.60;;;13.90;99.90;;;14.52;100.00;-21076.44;5053217;28;20448;-77
2021/06/09 00:29:54;;;;;;;0.80;0.80;;;13.90;99.90;;;14.54;100.00;-21077.00;5052968;28;20432;-77
2021/06/09 00:32:22;;;;;;;0.70;0.60;;;13.90;99.90;;;14.53;100.00;-21076.56;5053886;28;20971;-77
2021/06/09 00:34:49;;;;;;;0.70;0.63;;;13.90;99.90;;;14.53;100.00;-21076.72;5053088;28;20833;-78
2021/06/09 00:37:17;;;;;;;0.70;0.60;;;13.90;99.90;;;14.69;100.00;-21080.97;5071209;28;20444;-78
2021/06/09 00:39:45;;;;;;;0.70;0.60;;;14.00;99.90;;;14.76;100.00;-21082.78;5074866;28;20439;-76
2021/06/09 00:42:19;;;;;;;0.77;0.70;;;14.10;99.90;;;14.77;100.00;-21083.19;5071814;28;20432;-77
2021/06/09 00:44:50;;;;;;;0.70;0.60;;;14.10;99.90;;;14.67;100.00;-21080.56;5046779;28;20447;-76
2021/06/09 00:47:23;;;;;;;2.70;1.53;;;14.00;99.90;;;14.61;100.00;-21078.91;5060200;28;20481;-77
2021/06/09 00:49:51;;;;;;;0.70;0.60;;;14.00;99.90;;;14.55;100.00;-21077.13;5052346;28;20956;-77
2021/06/09 00:52:26;;;;;;;0.70;0.60;;;13.90;99.90;;;14.52;100.00;-21076.31;5036414;28;20550;-77
2021/06/09 00:54:55;;;;;;;0.80;0.70;;;13.80;99.90;;;14.45;100.00;-21074.50;5062351;28;20440;-77
2021/06/09 00:57:25;;;;;;;0.70;0.70;;;13.80;99.90;;;14.41;100.00;-21073.53;5052932;28;20443;-77
2021/06/09 00:59:54;;;;;;;0.70;0.60;;;13.70;99.90;;;14.35;100.00;-21071.75;5053534;28;20451;-77
2021/06/09 01:02:23;;;;;;;0.80;0.70;;;13.70;99.90;;;14.37;100.00;-21072.44;5036764;28;20447;-77
2021/06/09 01:04:50;;;;;;;0.80;0.80;;;13.70;99.90;;;14.38;100.00;-21072.59;5046489;28;20971;-77
2021/06/09 01:07:18;;;;;;;0.80;0.70;;;13.70;99.90;;;14.34;100.00;-21071.63;5070347;28;20485;-78
2021/06/09 01:09:46;;;;;;;0.80;0.70;;;13.70;99.90;;;14.37;100.00;-21072.31;5069009;28;20448;-77
2021/06/09 01:12:17;;;;;;;0.70;0.70;;;13.60;99.90;;;14.33;100.00;-21071.34;5053415;28;20492;-77
2021/06/09 01:14:47;;;;;;;0.77;0.70;;;13.70;99.90;;;14.30;100.00;-21070.53;5053116;28;20799;-77
2021/06/09 01:17:33;;;;;;;0.70;0.60;;;13.60;99.90;;;14.24;100.00;-21069.00;5053890;28;20440;-77
2021/06/09 01:20:01;;;;;;;0.73;0.67;;;13.50;99.90;;;14.23;100.00;-21068.59;5054951;28;20450;-78
2021/06/09 01:22:29;;;;;;;0.80;0.70;;;13.60;99.90;;;14.22;100.00;-21068.44;5072110;28;20950;-78
2021/06/09 01:24:57;;;;;;;0.80;0.70;;;13.60;99.90;;;14.16;100.00;-21066.66;5072753;28;21141;-78
2021/06/09 01:27:25;;;;;;;1.00;1.00;;;13.50;99.90;;;14.17;100.00;-21066.94;5071552;28;20451;-77
2021/06/09 01:29:53;;;;;;;0.70;0.60;;;13.50;99.90;;;14.18;100.00;-21067.22;5071373;28;20450;-77
2021/06/09 01:32:21;;;;;;;0.70;0.60;;;13.50;99.90;;;14.22;100.00;-21068.44;5056171;28;20508;-78
2021/06/09 01:34:49;;;;;;;0.70;0.70;;;13.50;99.90;;;14.27;100.00;-21069.69;5073998;28;20409;-77
2021/06/09 01:37:18;;;;;;;0.70;0.60;;;13.50;99.90;;;14.25;100.00;-21069.16;5072749;28;20454;-77
2021/06/09 01:39:48;;;;;;;0.80;0.70;;;13.50;99.90;;;14.16;100.00;-21066.66;5072319;28;21051;-78
2021/06/09 01:42:21;;;;;;;0.70;0.60;;;13.50;99.90;;;14.27;100.00;-21069.69;5071622;28;20421;-78
2021/06/09 01:44:49;;;;;;;0.70;0.60;;;13.50;99.90;;;14.26;100.00;-21069.41;5071939;28;20467;-78
2021/06/09 01:47:18;;;;;;;0.70;0.70;;;13.50;99.90;;;14.24;100.00;-21068.88;5070965;28;20830;-78
2021/06/09 01:49:46;;;;;;;0.70;0.70;;;13.50;99.90;;;14.21;100.00;-21068.19;5054082;28;20508;-77
2021/06/09 01:52:17;;;;;;;0.70;0.70;;;13.50;99.90;;;14.21;100.00;-21068.19;5070577;28;20498;-79
2021/06/09 01:54:47;;;;;;;0.70;0.60;;;13.50;99.90;;;14.25;100.00;-21069.16;5061499;28;21001;-77
2021/06/09 01:57:16;;;;;;;0.73;0.60;;;13.50;99.90;;;14.19;100.00;-21067.63;5070554;28;21036;-77
2021/06/09 01:59:44;;;;;;;0.70;0.60;;;13.40;99.90;;;14.14;100.00;-21066.09;5035695;28;20481;-76
2021/06/09 02:02:12;;;;;;;0.70;0.70;;;13.40;99.90;;;14.06;100.00;-21063.91;5051605;28;20811;-77
2021/06/09 02:04:41;;;;;;;0.70;0.70;;;13.40;99.90;;;14.10;100.00;-21065.00;5051482;28;20451;-77
2021/06/09 02:07:10;;;;;;;0.70;0.60;;;13.30;99.90;;;14.08;100.00;-21064.47;5054274;28;20452;-76
2021/06/09 02:09:39;;;;;;;0.70;0.70;;;13.30;99.90;;;14.07;100.00;-21064.19;5073434;28;20446;-77
2021/06/09 02:12:10;;;;;;;0.70;0.70;;;13.30;99.90;;;13.99;100.00;-21062.25;5072829;28;20862;-77
2021/06/09 02:14:39;;;;;;;0.70;0.60;;;13.30;99.90;;;13.97;100.00;-21061.69;5069785;28;20424;-77
2021/06/09 02:17:10;;;;;;;0.70;0.60;;;13.30;99.90;;;13.94;100.00;-21060.88;5072144;28;20423;-77
2021/06/09 02:19:39;;;;;;;0.70;0.60;;;13.20;99.90;;;13.90;100.00;-21059.78;5072902;28;20418;-77
2021/06/09 02:22:06;;;;;;;0.80;0.70;;;13.20;99.90;;;13.84;100.00;-21057.97;5072268;28;20404;-77
2021/06/09 02:24:34;;;;;;;0.80;0.70;;;13.20;99.90;;;13.81;100.00;-21057.16;5069026;28;20499;-78
2021/06/09 02:27:02;;;;;;;0.70;0.60;;;13.10;99.90;;;13.80;100.00;-21057.03;5050842;28;20799;-78
2021/06/09 02:29:31;;;;;;;0.73;0.67;;;13.10;99.90;;;13.86;100.00;-21058.66;5052190;28;20446;-78
2021/06/09 02:31:58;;;;;;;0.70;0.60;;;13.10;99.90;;;13.96;100.00;-21061.44;5051704;28;20895;-78
2021/06/09 02:34:26;;;;;;;0.70;0.60;;;13.20;99.90;;;14.04;100.00;-21063.34;5070999;28;20442;-78
2021/06/09 02:36:56;;;;;;;1.00;1.00;;;13.20;99.90;;;14.06;100.00;-21064.03;5071012;28;20431;-78
2021/06/09 02:39:24;;;;;;;0.70;0.63;;;13.30;99.90;;;14.05;100.00;-21063.78;5054797;28;20456;-77
2021/06/09 02:41:52;;;;;;;0.70;0.60;;;13.30;99.90;;;13.99;100.00;-21062.25;5053494;28;20452;-77
2021/06/09 02:44:21;;;;;;;0.70;0.60;;;13.30;99.90;;;13.96;100.00;-21061.44;5070069;28;20444;-77
2021/06/09 02:46:55;;;;;;;0.70;0.60;;;13.20;99.90;;;13.94;100.00;-21060.88;5073471;28;20414;-78
2021/06/09 02:49:26;;;;;;;0.70;0.60;;;13.20;99.90;;;13.90;100.00;-21059.63;5071027;28;20437;-77
2021/06/09 02:51:59;;;;;;;0.70;0.60;;;13.20;99.90;;;13.90;100.00;-21059.63;5071912;28;20503;-77
2021/06/09 02:54:36;;;;;;;0.70;0.60;;;13.10;99.90;;;13.82;100.00;-21057.56;5070526;28;20454;-77
2021/06/09 02:57:18;;;;;;;0.70;0.60;;;13.10;99.90;;;13.77;100.00;-21056.19;5070185;28;20488;-78
2021/06/09 03:00:02;;;;;;;0.70;0.60;;;13.00;99.90;;;13.75;100.00;-21055.78;5071035;28;20434;-77
2021/06/09 03:02:46;;;;;;;0.70;0.60;;;12.90;99.90;;;13.73;100.00;-21055.22;5052252;28;20432;-77
2021/06/09 03:05:24;;;;;;;0.70;0.70;;;12.90;99.90;;;13.68;100.00;-21053.84;5051580;28;20444;-78
2021/06/09 03:08:02;;;;;;;0.70;0.67;;;12.90;99.90;;;13.64;100.00;-21052.63;5034946;28;20948;-78
2021/06/09 03:10:46;;;;;;;0.70;0.60;;;12.90;99.90;;;13.83;100.00;-21057.84;5068052;28;20443;-78
2021/06/09 03:13:53;;;;;;;0.70;0.60;;;12.90;99.90;;;13.89;100.00;-21059.38;5063177;28;20471;-78
2021/06/09 03:16:26;;;;;;;0.80;0.70;;;13.00;99.90;;;13.96;100.00;-21061.44;5064980;28;20480;-76
2021/06/09 03:19:03;;;;;;;0.70;0.70;;;13.10;99.90;;;13.91;100.00;-21060.03;5054701;28;20429;-77
2021/06/09 03:21:39;;;;;;;0.70;0.60;;;13.10;99.90;;;13.96;100.00;-21061.28;5072337;28;20466;-77
2021/06/09 03:24:15;;;;;;;0.70;0.60;;;13.10;99.90;;;13.90;100.00;-21059.78;5052461;28;20795;-76
2021/06/09 03:26:51;;;;;;;0.70;0.67;;;13.10;99.90;;;13.87;100.00;-21058.94;5051198;28;20430;-77
2021/06/09 03:29:26;;;;;;;0.70;0.70;;;13.00;99.90;;;13.79;100.00;-21056.75;5034712;28;20481;-78
2021/06/09 03:32:00;;;;;;;0.70;0.70;;;13.00;99.90;;;13.81;100.00;-21057.28;5052230;28;20494;-78
2021/06/09 03:34:37;;;;;;;0.70;0.70;;;13.00;99.90;;;13.81;100.00;-21057.28;5050776;28;20437;-77
2021/06/09 03:37:08;;;;;;;0.70;0.70;;;12.90;99.90;;;13.91;100.00;-21060.03;5054811;28;20438;-77
2021/06/09 03:39:39;;;;;;;0.70;0.70;;;13.00;99.90;;;13.89;100.00;-21059.50;5075119;28;20443;-77
2021/06/09 03:42:10;;;;;;;0.80;0.70;;;13.00;99.90;;;13.93;100.00;-21060.59;5088923;28;20764;-78
2021/06/09 03:44:45;;;;;;;0.70;0.60;;;13.00;99.90;;;13.93;100.00;-21060.47;5069635;28;20466;-77
2021/06/09 03:47:13;;;;;;;0.70;0.70;;;13.00;99.90;;;13.96;100.00;-21061.28;5055778;28;20922;-77
2021/06/09 03:49:45;;;;;;;0.70;0.60;;;13.00;99.90;;;13.91;100.00;-21060.03;5066587;28;20479;-77
2021/06/09 03:52:14;;;;;;;0.70;0.60;;;13.00;99.90;;;13.88;100.00;-21059.22;5040766;28;20462;-77
2021/06/09 03:54:45;;;;;;;0.70;0.60;;;13.00;99.90;;;13.94;100.00;-21060.88;5073711;28;20876;-77
2021/06/09 03:57:14;;;;;;;0.70;0.60;;;13.10;99.90;;;13.99;100.00;-21062.25;5075406;28;20422;-77
2021/06/09 03:59:46;;;;;;;0.73;0.70;;;13.10;99.90;;;14.00;100.00;-21062.53;5074681;28;20407;-77
2021/06/09 04:02:14;;;;;;;0.70;0.60;;;13.10;99.90;;;14.01;100.00;-21062.66;5071861;28;20428;-76
2021/06/09 04:04:45;;;;;;;0.70;0.60;;;13.10;99.90;;;14.01;100.00;-21062.81;5072477;28;20969;-77
2021/06/09 04:07:14;;;;;;;0.70;0.70;;;13.20;99.90;;;14.07;100.00;-21064.19;5075643;28;20473;-77
2021/06/09 04:09:44;;;;;;;0.70;0.60;;;13.20;99.90;;;14.04;100.00;-21063.34;5073176;28;20501;-77
2021/06/09 04:12:13;;;;;;;0.70;0.60;;;13.30;99.90;;;14.04;100.00;-21063.34;5071902;28;20454;-77
2021/06/09 04:14:45;;;;;;;0.70;0.70;;;13.30;99.90;;;14.11;100.00;-21065.28;5054463;28;20516;-77
2021/06/09 04:17:17;;;;;;;0.70;0.60;;;13.30;99.90;;;14.14;100.00;-21066.09;5037702;28;20441;-77
2021/06/09 04:19:49;;;;;;;0.70;0.70;;;13.30;99.90;;;14.16;100.00;-21066.66;5054176;28;20455;-77
2021/06/09 04:22:16;;;;;;;0.70;0.70;;;13.30;99.90;;;14.22;100.00;-21068.31;5055582;28;20439;-77
2021/06/09 04:24:44;;;;;;;0.80;0.80;;;13.40;99.90;;;14.25;100.00;-21069.28;5053823;28;20452;-78
2021/06/09 04:27:17;;;;;;;0.80;0.70;;;13.40;99.90;;;14.35;100.00;-21071.88;5053970;28;20432;-77
2021/06/09 04:29:46;;;;;;;0.70;0.67;;;13.50;99.90;;;14.45;100.00;-21074.66;5053600;28;20423;-77
2021/06/09 04:32:13;;;;;;;2.00;1.53;;;13.50;99.90;;;14.55;100.00;-21077.13;5071209;28;20978;-77
2021/06/09 04:34:47;;;;;;;0.70;0.67;;;13.70;99.90;;;14.63;100.00;-21079.47;5060653;28;20769;-78
2021/06/09 04:37:18;;;;;;;0.80;0.70;;;13.80;99.90;;;14.73;100.00;-21082.22;5053774;28;20493;-77
2021/06/09 04:39:47;;;;;;;0.80;0.70;;;13.80;99.90;;;14.83;100.00;-21084.69;5055077;28;20449;-77
2021/06/09 04:42:17;;;;;;;0.70;0.70;;;13.90;99.90;;;15.02;100.00;-21089.78;5061724;28;20474;-78
2021/06/09 04:44:45;;;;;;;0.70;0.60;;;14.00;99.90;;;15.18;100.00;-21094.31;5074246;28;20470;-77
2021/06/09 04:47:13;;;;;;;0.70;0.70;;;14.20;99.90;;;15.28;100.00;-21096.81;5071503;28;20422;-77
2021/06/09 04:49:44;;;;;;;0.70;0.60;;;14.30;99.90;;;15.44;100.00;-21101.34;5073491;28;20455;-77
2021/06/09 04:52:14;;;;;;;0.70;0.60;;;14.40;99.90;;;15.60;100.00;-21105.59;5073409;28;20449;-77
2021/06/09 04:54:42;;;;;;;0.80;0.70;;;14.50;99.90;;;15.63;100.00;-21106.28;5074452;28;20453;-77
2021/06/09 04:57:11;;;;;;;0.70;0.60;;;14.60;99.90;;;15.70;100.00;-21108.22;5063883;28;20439;-77
2021/06/09 04:59:38;;;;;;;0.70;0.70;;;14.70;99.90;;;15.80;100.00;-21110.84;5053292;28;20528;-76
2021/06/09 05:02:07;;;;;;;0.77;0.70;;;14.70;99.90;;;15.76;100.00;-21109.88;5074312;28;20852;-77
2021/06/09 05:04:34;;;;;;;0.80;0.70;;;14.80;99.90;;;15.77;100.00;-21110.13;5073658;28;20438;-77
2021/06/09 05:07:03;;;;;;;0.70;0.60;;;14.80;99.90;;;15.80;100.00;-21110.97;5065164;28;20457;-77
2021/06/09 05:09:32;;;;;;;0.70;0.60;;;14.90;99.90;;;15.84;100.00;-21112.06;5044174;28;20550;-78
2021/06/09 05:12:04;;;;;;;0.70;0.60;;;14.90;99.90;;;15.94;100.00;-21114.81;5049581;28;21057;-77
2021/06/09 05:14:41;;;;;;;0.70;0.60;;;15.00;99.90;;;15.97;100.00;-21115.38;5056125;28;20428;-78
2021/06/09 05:17:10;;;;;;;1.03;1.00;;;15.00;99.90;;;16.08;100.00;-21118.53;5073333;28;20431;-76
2021/06/09 05:19:40;;;;;;;0.70;0.60;;;15.10;99.90;;;16.14;100.00;-21120.03;5056612;28;20441;-77
2021/06/09 05:22:16;;;;;;;0.70;0.60;;;15.20;99.90;;;16.27;100.00;-21123.59;5072461;28;20424;-78
2021/06/09 05:24:48;;;;;;;0.70;0.60;;;15.30;99.90;;;16.43;100.00;-21128.00;5071432;28;20455;-77
2021/06/09 05:27:21;;;;;;;0.73;0.70;;;15.30;99.90;;;16.49;100.00;-21129.38;5073818;28;20497;-77
2021/06/09 05:29:50;;;;;;;0.70;0.60;;;15.40;99.90;;;16.58;100.00;-21131.84;5050217;28;20438;-77
2021/06/09 05:32:19;;;;;;;0.80;0.80;;;15.50;99.90;;;16.81;100.00;-21138.03;5070186;28;20515;-77
2021/06/09 05:34:48;;;;;;;1.77;1.67;;;15.60;99.90;;;16.85;100.00;-21139.25;5050438;28;20444;-78
2021/06/09 05:37:16;;;;;;;1.10;1.00;;;15.70;99.90;;;16.94;100.00;-21141.59;5036123;28;20941;-77
2021/06/09 05:39:45;;;;;;;0.70;0.60;;;15.90;99.90;;;17.08;100.00;-21145.28;5052738;28;20459;-77
2021/06/09 05:42:15;;;;;;;0.70;0.60;;;16.00;99.90;;;17.14;100.00;-21146.94;5045615;28;20488;-76
2021/06/09 05:44:48;;;;;;;0.70;0.60;;;16.10;99.90;;;17.25;100.00;-21149.97;5041880;28;20453;-77
2021/06/09 05:47:16;;;;;;;0.70;0.60;;;16.20;99.90;;;17.36;100.00;-21152.84;5072272;28;20450;-76
2021/06/09 05:49:44;;;;;;;0.70;0.70;;;16.30;99.90;;;17.42;100.00;-21154.34;5074133;28;20946;-77
2021/06/09 05:52:13;;;;;;;0.70;0.60;;;16.50;99.90;;;17.52;100.00;-21157.22;5060742;28;20442;-77
2021/06/09 05:54:42;;;;;;;0.70;0.60;;;16.60;99.90;;;17.69;100.00;-21161.75;5037197;28;20459;-76
2021/06/09 05:57:12;;;;;;;0.70;0.60;;;16.70;99.90;;;17.77;100.00;-21163.94;5035511;28;20441;-76
2021/06/09 05:59:40;;;;;;;0.70;0.60;;;16.80;99.90;;;17.83;100.00;-21165.44;5060118;28;20463;-75
2021/06/09 06:02:10;;;;;;;0.73;0.70;;;17.00;99.90;;;17.95;100.00;-21168.59;5070462;28;20440;-76
2021/06/09 06:04:38;;;;;;;0.70;0.60;;;17.10;99.90;;;17.99;100.00;-21169.84;5059741;28;20427;-75
2021/06/09 06:07:07;;;;;;;0.77;0.63;;;17.20;99.90;;;18.19;100.00;-21175.19;5073448;28;20970;-77
2021/06/09 06:09:36;;;;;;;0.70;0.60;;;17.30;99.90;;;18.29;100.00;-21177.91;5055504;28;20456;-76
2021/06/09 06:12:05;;;;;;;0.70;0.60;;;17.50;99.90;;;18.34;100.00;-21179.16;5070729;28;20431;-75
2021/06/09 06:14:36;;;;;;;0.80;0.70;;;17.60;99.90;;;18.52;100.00;-21184.09;5056152;28;20443;-75
2021/06/09 06:17:04;;;;;;;0.80;0.70;;;17.80;99.90;;;18.66;100.00;-21187.63;5051289;28;20959;-76
2021/06/09 06:19:35;;;;;;;0.70;0.60;;;17.90;99.90;;;18.84;100.00;-21192.56;5071720;28;20492;-75
2021/06/09 06:22:12;;;;;;;0.80;0.77;;;18.10;99.90;;;18.88;100.00;-21193.66;5066071;28;20899;-77
2021/06/09 06:24:42;;;;;;;0.70;0.60;;;18.30;99.90;;;19.01;100.00;-21197.09;5056459;28;20458;-78
2021/06/09 06:27:13;;;;;;;0.70;0.60;;;18.40;99.90;;;19.16;100.00;-21201.06;5072325;28;20736;-75
2021/06/09 06:29:46;;;;;;;0.80;0.70;;;18.60;99.90;;;19.24;100.00;-21203.38;5049196;28;20449;-76
2021/06/09 06:32:16;;;;;;;0.70;0.60;;;18.70;99.90;;;19.53;100.00;-21211.03;5053171;28;20440;-77
2021/06/09 06:34:49;;;;;;;0.70;0.60;;;18.90;99.90;;;19.67;100.00;-21214.88;5057111;28;20539;-77
2021/06/09 06:37:20;;;;;;;0.77;0.67;;;19.00;99.90;;;19.84;100.00;-21219.25;5037514;28;20432;-77
2021/06/09 06:39:52;;;;;;;1.57;1.47;;;19.20;99.90;;;19.99;100.00;-21223.47;5071353;28;20437;-78
2021/06/09 06:42:19;;;;;;;1.17;1.07;;;19.30;99.90;;;20.02;100.00;-21224.16;5068125;28;20439;-77
2021/06/09 06:44:49;;;;;;;3.63;1.37;;;19.50;99.90;;;20.11;100.00;-21226.50;5067453;28;20942;-77
2021/06/09 06:47:19;;;;;;;0.70;0.60;;;19.60;99.90;;;20.44;100.00;-21235.38;5056198;28;20844;-77
2021/06/09 06:49:50;;;;;;;0.70;0.70;;;19.80;99.90;;;20.39;100.00;-21234.00;5071175;28;20514;-76
2021/06/09 06:52:17;;;;;;;0.80;0.70;;;19.90;99.90;;;20.45;100.00;-21235.63;5071380;28;20444;-79
2021/06/09 06:54:45;;;;;;;0.90;0.90;;;20.10;99.90;;;20.47;100.00;-21236.31;5052604;28;20447;-78
2021/06/09 06:57:13;;;;;;;0.70;0.60;;;20.20;99.90;;;20.58;100.00;-21239.19;5052737;28;20416;-79
2021/06/09 06:59:41;;;;;;;0.70;0.60;;;20.20;99.90;;;20.77;100.00;-21244.09;5051494;28;20753;-78
2021/06/09 07:02:13;;;;;;;0.77;0.67;;;20.30;99.90;;;21.07;100.00;-21252.28;5052978;28;20443;-77
2021/06/09 07:04:42;;;;;;;0.80;0.70;;;20.60;99.90;;;21.40;100.00;-21261.16;5059431;28;20447;-77
2021/06/09 07:07:09;;;;;;;0.70;0.60;;;20.70;99.90;;;21.28;100.00;-21257.88;5061220;28;20849;-77
2021/06/09 07:09:38;;;;;;;0.70;0.60;;;20.80;99.90;;;21.38;100.00;-21260.47;5053173;28;20446;-77
2021/06/09 07:12:06;;;;;;;0.70;0.60;;;21.00;99.90;;;21.58;100.00;-21265.78;5071920;28;20467;-75
2021/06/09 07:14:36;;;;;;;0.80;0.70;;;21.10;99.90;;;22.01;100.00;-21277.38;5071882;28;20946;-77
2021/06/09 07:17:04;;;;;;;0.70;0.60;;;21.30;99.90;;;22.13;100.00;-21280.66;5072695;28;20632;-77
2021/06/09 07:19:33;;;;;;;0.70;0.60;;;21.50;99.90;;;21.92;100.00;-21274.94;5073838;28;20782;-77
2021/06/09 07:22:15;;;;;;;0.70;0.63;;;21.50;99.90;;;22.21;100.00;-21282.56;5076053;28;20456;-78
2021/06/09 07:24:43;;;;;;;0.70;0.60;;;21.70;99.90;;;22.39;100.00;-21287.47;5074849;28;20810;-77
2021/06/09 07:27:12;;;;;;;3.13;1.57;;;21.80;99.90;;;22.51;100.00;-21290.72;5052539;28;20922;-77
2021/06/09 07:29:43;;;;;;;0.80;0.60;;;22.00;99.90;;;22.36;100.00;-21286.66;5072072;28;20791;-77
2021/06/09 07:32:16;;;;;;;0.73;0.60;;;22.20;99.90;;;22.71;100.00;-21295.91;5053684;28;20863;-77
2021/06/09 07:34:46;;;;;;;1.67;1.57;;;22.20;99.90;;;23.12;100.00;-21306.91;5054895;28;20459;-76
2021/06/09 07:37:22;;;;;;;1.40;1.30;;;22.40;99.90;;;22.99;100.00;-21303.53;5063974;28;20564;-78
2021/06/09 07:40:01;;;;;;;0.80;0.70;;;22.70;99.90;;;23.05;100.00;-21305.16;5048572;28;20443;-77
2021/06/09 07:42:31;;;;;;;0.70;0.60;;;22.80;99.90;;;23.49;100.00;-21316.84;5064296;28;20410;-77
2021/06/09 07:45:04;;;;;;;0.70;0.60;;;23.00;99.90;;;23.60;100.00;-21319.84;5038097;28;20436;-77
2021/06/09 07:47:34;;;;;;;0.80;0.60;;;23.20;99.90;;;23.55;100.00;-21318.47;5039776;28;20453;-77
2021/06/09 07:50:07;;;;;;;0.80;0.70;;;23.40;99.90;;;23.35;100.00;-21313.03;5054227;28;20432;-78
2021/06/09 07:52:38;;;;;;;0.80;0.70;;;23.40;99.90;;;23.33;100.00;-21312.50;5037051;28;20971;-77
2021/06/09 07:55:08;;;;;;;0.70;0.60;;;23.40;99.90;;;23.77;100.00;-21324.19;5054672;28;20454;-77
2021/06/09 07:57:39;;;;;;;0.70;0.60;;;23.60;99.90;;;24.43;100.00;-21341.84;5054583;28;20422;-76
2021/06/09 08:00:12;;;;;;;0.70;0.63;;;23.80;99.90;;;24.57;100.00;-21345.53;5059660;28;20447;-76
2021/06/09 08:02:43;;;;;;;0.80;0.80;;;24.00;99.90;;;24.90;100.00;-21354.34;5068951;28;20525;-75
2021/06/09 08:05:14;;;;;;;0.90;0.70;;;24.20;99.90;;;25.01;100.00;-21357.31;5071005;28;20985;-76
2021/06/09 08:07:42;;;;;;;0.70;0.60;;;24.40;99.90;;;24.52;100.00;-21344.16;5060502;28;20442;-80
2021/06/09 08:10:12;;;;;;;1.33;1.17;;;24.50;99.90;;;24.51;100.00;-21344.03;5073827;28;20434;-78
2021/06/09 08:12:40;;;;;;;1.23;1.13;;;24.60;99.90;;;24.11;100.00;-21333.44;5061493;28;20443;-78
2021/06/09 08:15:11;;;;;;;0.70;0.60;;;24.60;99.90;;;24.80;100.00;-21351.63;5037550;28;20424;-78
2021/06/09 08:17:39;;;;;;;0.70;0.60;;;24.60;99.90;;;25.32;100.00;-21365.47;5055459;28;20439;-76
2021/06/09 08:20:18;;;;;;;0.70;0.60;;;24.70;99.90;;;25.52;100.00;-21370.88;5055627;28;20416;-76
2021/06/09 08:22:50;;;;;;;0.70;0.50;;;24.90;99.90;;;25.66;100.00;-21374.41;5053264;28;20468;-77
2021/06/09 08:25:22;;;;;;;0.80;0.80;;;25.10;99.90;;;25.71;100.00;-21375.91;5060752;28;20471;-77
2021/06/09 08:27:52;;;;;;;0.70;0.60;;;25.30;99.90;;;26.20;100.00;-21388.75;5075647;28;20431;-78
2021/06/09 08:30:22;;;;;;;0.70;0.60;;;25.60;99.90;;;26.53;100.00;-21397.44;5070914;28;20416;-76
2021/06/09 08:32:50;;;;;;;0.80;0.70;;;25.90;99.90;;;26.73;100.00;-21402.84;5073464;28;20422;-77
2021/06/09 08:35:22;;;;;;;0.70;0.50;;;26.20;99.90;;;27.56;100.00;-21424.75;5074572;28;20418;-78
2021/06/09 08:37:50;;;;;;;0.93;0.87;;;26.70;99.90;;;27.57;100.00;-21425.00;5074533;28;20462;-77
2021/06/09 08:40:19;;;;;;;0.70;0.60;;;27.30;97.70;;;27.25;100.00;-21416.63;5073745;28;20415;-77
2021/06/09 08:42:47;;;;;;;0.70;0.50;;;27.40;92.60;;;28.07;100.00;-21438.25;5062607;28;20436;-78
2021/06/09 08:45:16;;;;;;;0.70;0.50;;;27.60;90.00;;;27.64;100.00;-21427.03;5074309;28;20447;-80
2021/06/09 08:47:44;;;;;;;0.70;0.60;;;27.80;82.60;;;27.55;100.00;-21424.59;5071432;28;20451;-78
2021/06/09 08:50:13;;;;;;;0.70;0.50;;;27.60;82.10;;;27.09;100.00;-21412.31;5071009;28;20489;-78
2021/06/09 08:52:47;;;;;;;0.70;0.50;;;27.50;79.30;;;28.29;100.00;-21444.06;5067104;28;20770;-77
2021/06/09 08:55:16;;;;;;;0.70;0.60;;;27.70;79.70;;;28.86;100.00;-21459.16;5069291;28;20455;-77
2021/06/09 08:57:48;;;;;;;0.80;0.60;;;28.20;76.00;;;29.66;100.00;-21480.31;5073230;28;20427;-78
2021/06/09 09:00:18;;;;;;;0.70;0.50;;;28.80;71.90;;;29.19;100.00;-21467.94;5063014;28;20450;-78
2021/06/09 09:02:47;;;;;;;0.70;0.50;;;28.90;67.40;;;30.32;100.00;-21497.81;5058020;28;20428;-78
2021/06/09 09:05:15;;;;;;;0.70;0.60;;;29.60;60.40;;;29.63;100.00;-21479.38;5069937;28;20430;-77
2021/06/09 09:07:46;;;;;;;0.70;0.50;;;30.10;58.70;;;30.49;100.00;-21502.13;5073680;28;20439;-77
2021/06/09 09:10:15;;;;;;;0.70;0.50;;;30.50;57.30;;;30.75;100.00;-21509.13;5051024;28;20837;-76
2021/06/09 09:12:43;;;;;;;0.70;0.50;;;31.20;54.10;;;31.90;100.00;-21539.19;5068953;28;20733;-78
2021/06/09 09:15:12;;;;;;;0.70;0.50;;;32.20;46.70;;;32.55;100.00;-21556.38;5073994;28;20551;-79
2021/06/09 09:17:54;;;;;;;0.80;0.50;;;32.60;37.90;;;32.77;100.00;-21562.00;5069935;28;20764;-78
2021/06/09 09:20:26;;;;;;;0.70;0.50;;;33.00;31.00;;;31.41;100.00;-21526.31;5067350;28;20513;-78
2021/06/09 09:22:58;;;;;;;0.77;0.50;;;32.90;33.90;;;30.78;100.00;-21509.94;5055536;28;20463;-78
2021/06/09 09:25:32;;;;;;;0.90;0.70;;;32.40;32.90;;;31.19;100.00;-21520.66;5068063;28;20442;-75
2021/06/09 09:28:03;;;;;;;0.80;0.60;;;32.10;33.30;;;31.38;100.00;-21525.50;5071979;28;20468;-77
2021/06/09 09:30:33;;;;;;;0.80;0.50;;;32.10;34.90;;;31.59;100.00;-21531.16;5071202;28;20416;-81
2021/06/09 09:33:08;;;;;;;0.80;0.60;;;32.30;33.00;;;30.78;100.00;-21509.78;5086054;28;20832;-75
2021/06/09 09:35:37;;;;;;;0.80;0.50;;;32.40;31.40;;;32.16;100.00;-21546.03;5062657;28;20443;-78
2021/06/09 09:38:20;;;;;;;1.00;0.80;;;32.50;30.90;;;31.82;100.00;-21537.06;5060248;28;20553;-78
2021/06/09 09:41:13;;;;;;;0.80;0.60;;;32.70;30.90;;;31.52;100.00;-21529.28;5071365;28;20411;-78
2021/06/09 09:43:51;;;;;;;0.80;0.50;;;32.30;29.60;;;32.17;100.00;-21546.31;5071247;28;20447;-77
2021/06/09 09:46:24;;;;;;;1.40;0.70;;;32.60;29.40;;;31.45;100.00;-21527.38;5055039;28;20993;-78
2021/06/09 09:49:08;;;;;;;0.70;0.50;;;32.60;28.30;;;33.16;100.00;-21572.44;5060903;28;21027;-78
2021/06/09 09:51:55;;;;;;;1.17;0.83;;;33.30;27.40;;;32.96;100.00;-21567.09;5067632;28;20461;-78
2021/06/09 09:54:29;;;;;;;0.90;0.60;;;34.00;26.80;;;32.41;100.00;-21552.63;5062104;28;20834;-78
2021/06/09 09:56:58;;;;;;;0.80;0.50;;;33.60;31.10;;;32.89;100.00;-21565.19;5072376;28;20871;-79
2021/06/09 09:59:27;;;;;;;1.07;0.80;;;34.20;28.60;;;33.17;100.00;-21572.69;5071165;28;20423;-77
2021/06/09 10:01:57;;;;;;;0.90;0.60;;;34.50;22.50;;;34.13;100.00;-21597.72;5069389;28;20435;-78
2021/06/09 10:04:29;;;;;;;0.80;0.50;;;34.60;19.80;;;34.96;100.00;-21619.50;5047642;28;20427;-78
2021/06/09 10:06:58;;;;;;;1.17;0.60;;;34.90;18.90;;;33.96;100.00;-21593.31;5063156;28;20439;-78
2021/06/09 10:09:29;;;;;;;0.90;0.70;;;35.00;21.20;;;32.97;100.00;-21567.22;5066189;28;20529;-77
2021/06/09 10:12:00;;;;;;;0.90;0.57;;;34.80;18.70;;;34.55;100.00;-21608.69;5067911;28;20431;-79
2021/06/09 10:14:31;;;;;;;0.80;0.50;;;34.70;19.60;;;35.02;100.00;-21621.09;5053490;28;20509;-79
2021/06/09 10:17:02;;;;;;;0.80;0.50;;;35.10;18.80;;;32.68;100.00;-21559.72;5073818;28;20419;-80
2021/06/09 10:19:34;;;;;;;0.80;0.50;;;34.40;17.70;;;30.87;100.00;-21512.06;5049714;28;20785;-79